createdAt,value
2018-12-16T00:01:54.276Z,70.09
2018-12-16T00:04:21.982Z,69.79
2018-12-16T00:06:49.544Z,68.97
2018-12-16T00:09:17.063Z,69.42
2018-12-16T00:11:45.472Z,69.26
2018-12-16T00:14:12.952Z,69.67
2018-12-16T00:16:41.197Z,69.33
2018-12-16T00:19:08.694Z,69.59
2018-12-16T00:21:36.635Z,69.80
2018-12-16T00:24:04.292Z,69.82
2018-12-16T00:26:43.772Z,69.05
2018-12-16T00:29:12.317Z,69.90
2018-12-16T00:31:42.634Z,68.88
2018-12-16T00:34:10.155Z,69.03
2018-12-16T00:36:38.628Z,69.89
2018-12-16T00:39:07.038Z,70.57
2018-12-16T00:41:34.533Z,70.60
2018-12-16T00:44:02.980Z,69.99
2018-12-16T00:46:30.556Z,70.41
2018-12-16T00:48:58.065Z,70.81
2018-12-16T00:51:25.625Z,70.32
2018-12-16T00:53:53.135Z,70.76
2018-12-16T00:56:21.538Z,70.04
2018-12-16T00:58:49.069Z,70.08
2018-12-16T01:01:16.755Z,69.61
2018-12-16T01:03:44.740Z,70.57
2018-12-16T01:06:12.235Z,70.38
2018-12-16T01:08:40.276Z,69.71
2018-12-16T01:11:07.892Z,69.83
2018-12-16T01:13:38.277Z,70.05
2018-12-16T01:16:05.818Z,70.84
2018-12-16T01:18:33.384Z,71.24
2018-12-16T01:21:01.737Z,71.57
2018-12-16T01:23:29.225Z,70.87
2018-12-16T01:25:57.125Z,71.30
2018-12-16T01:28:24.679Z,70.99
2018-12-16T01:30:52.235Z,71.15
2018-12-16T01:33:19.767Z,71.45
2018-12-16T01:35:47.372Z,70.86
2018-12-16T01:38:14.865Z,71.24
2018-12-16T01:40:43.178Z,71.52
2018-12-16T01:43:11.181Z,71.47
2018-12-16T01:45:38.805Z,71.98
2018-12-16T01:48:06.354Z,70.72
2018-12-16T01:50:34.096Z,71.79
2018-12-16T01:53:02.684Z,72.19
2018-12-16T01:55:30.276Z,71.41
2018-12-16T01:57:59.424Z,71.25
2018-12-16T02:00:28.643Z,71.96
2018-12-16T02:02:56.253Z,71.92
2018-12-16T02:05:23.814Z,72.40
2018-12-16T02:07:51.287Z,72.26
2018-12-16T02:10:18.850Z,71.13
2018-12-16T02:12:46.424Z,72.12
2018-12-16T02:15:14.657Z,72.30
2018-12-16T02:17:43.291Z,72.19
2018-12-16T02:20:11.632Z,73.01
2018-12-16T02:22:39.118Z,72.74
2018-12-16T02:25:07.853Z,71.90
2018-12-16T02:27:35.507Z,71.60
2018-12-16T02:30:03.302Z,71.72
2018-12-16T02:32:31.058Z,72.04
2018-12-16T02:34:58.567Z,72.43
2018-12-16T02:37:26.254Z,72.29
2018-12-16T02:39:55.692Z,72.46
2018-12-16T02:42:23.217Z,72.11
2018-12-16T02:44:50.960Z,72.82
2018-12-16T02:47:19.271Z,71.87
2018-12-16T02:49:46.760Z,71.57
2018-12-16T02:52:15.767Z,72.89
2018-12-16T02:54:44.061Z,72.24
2018-12-16T02:57:11.641Z,71.65
2018-12-16T02:59:40.523Z,71.60
2018-12-16T03:02:09.064Z,71.48
2018-12-16T03:04:37.625Z,71.37
2018-12-16T03:07:05.130Z,71.26
2018-12-16T03:09:32.727Z,71.91
2018-12-16T03:12:00.359Z,72.25
2018-12-16T03:14:29.235Z,71.97
2018-12-16T03:16:58.672Z,72.57
2018-12-16T03:19:26.149Z,72.95
2018-12-16T03:21:55.702Z,72.52
2018-12-16T03:24:23.210Z,72.53
2018-12-16T03:26:50.813Z,72.36
2018-12-16T03:29:18.386Z,71.84
2018-12-16T03:31:46.076Z,71.95
2018-12-16T03:34:13.625Z,72.28
2018-12-16T03:36:41.211Z,72.60
2018-12-16T03:39:08.778Z,73.17
2018-12-16T03:41:37.103Z,72.54
2018-12-16T03:44:05.041Z,73.13
2018-12-16T03:46:32.517Z,73.19
2018-12-16T03:49:00.056Z,72.76
2018-12-16T03:51:28.538Z,73.08
2018-12-16T03:53:56.095Z,73.69
2018-12-16T03:56:23.575Z,73.35
2018-12-16T03:59:03.476Z,72.89
2018-12-16T04:01:31.023Z,72.53
2018-12-16T04:03:59.509Z,73.21
2018-12-16T04:06:27.052Z,72.82
2018-12-16T04:08:54.679Z,73.25
2018-12-16T04:11:22.367Z,73.63
2018-12-16T04:13:49.913Z,73.81
2018-12-16T04:16:17.408Z,72.67
2018-12-16T04:18:45.938Z,72.65
2018-12-16T04:21:13.486Z,72.46
2018-12-16T04:23:40.999Z,73.13
2018-12-16T04:26:08.616Z,71.96
2018-12-16T04:28:37.525Z,72.21
2018-12-16T04:31:05.978Z,72.51
2018-12-16T04:33:33.491Z,73.24
2018-12-16T04:36:01.126Z,72.55
2018-12-16T04:38:28.622Z,73.11
2018-12-16T04:40:57.771Z,73.09
2018-12-16T04:43:25.288Z,73.04
2018-12-16T04:45:52.785Z,72.66
2018-12-16T04:48:20.322Z,73.04
2018-12-16T04:50:47.922Z,72.49
2018-12-16T04:53:15.475Z,73.26
2018-12-16T04:55:43.348Z,72.83
2018-12-16T04:58:10.885Z,72.42
2018-12-16T05:00:38.517Z,72.49
2018-12-16T05:03:06.067Z,73.04
2018-12-16T05:05:33.569Z,73.43
2018-12-16T05:08:01.963Z,73.54
2018-12-16T05:10:31.053Z,72.44
2018-12-16T05:12:58.635Z,72.09
2018-12-16T05:15:26.269Z,71.99
2018-12-16T05:17:53.879Z,71.97
2018-12-16T05:20:21.393Z,72.53
2018-12-16T05:22:48.950Z,72.33
2018-12-16T05:25:16.558Z,72.52
2018-12-16T05:27:44.038Z,71.76
2018-12-16T05:30:11.648Z,72.76
2018-12-16T05:32:39.292Z,71.64
2018-12-16T05:35:07.245Z,72.65
2018-12-16T05:37:34.786Z,72.08
2018-12-16T05:40:04.034Z,72.85
2018-12-16T05:42:32.506Z,72.51
2018-12-16T05:44:59.997Z,71.76
2018-12-16T05:47:29.221Z,72.07
2018-12-16T05:49:57.644Z,71.75
2018-12-16T05:52:25.249Z,71.41
2018-12-16T05:54:52.793Z,72.11
2018-12-16T05:57:20.439Z,71.57
2018-12-16T05:59:47.960Z,71.37
2018-12-16T06:02:16.128Z,70.73
2018-12-16T06:04:43.641Z,70.63
2018-12-16T06:07:11.197Z,70.48
2018-12-16T06:09:38.762Z,70.71
2018-12-16T06:12:06.730Z,71.08
2018-12-16T06:14:34.249Z,70.95
2018-12-16T06:17:02.718Z,70.39
2018-12-16T06:19:30.322Z,70.44
2018-12-16T06:21:57.888Z,70.36
2018-12-16T06:24:25.442Z,70.21
2018-12-16T06:26:53.823Z,71.10
2018-12-16T06:29:21.391Z,71.49
2018-12-16T06:31:49.016Z,71.13
2018-12-16T06:34:17.564Z,70.97
2018-12-16T06:36:45.246Z,70.24
2018-12-16T06:39:13.393Z,69.99
2018-12-16T06:41:42.374Z,70.58
2018-12-16T06:44:10.728Z,69.74
2018-12-16T06:46:39.989Z,69.96
2018-12-16T06:49:08.935Z,70.46
2018-12-16T06:51:36.471Z,70.67
2018-12-16T06:54:05.166Z,70.21
2018-12-16T06:56:32.973Z,69.90
2018-12-16T06:59:02.280Z,69.91
2018-12-16T07:01:29.758Z,70.35
2018-12-16T07:03:57.267Z,70.66
2018-12-16T07:06:24.913Z,70.19
2018-12-16T07:08:52.880Z,69.76
2018-12-16T07:11:21.758Z,70.51
2018-12-16T07:13:51.940Z,69.62
2018-12-16T07:16:19.965Z,70.03
2018-12-16T07:18:47.881Z,70.39
2018-12-16T07:21:15.535Z,70.37
2018-12-16T07:23:43.181Z,70.47
2018-12-16T07:26:12.006Z,69.56
2018-12-16T07:28:39.699Z,70.67
2018-12-16T07:31:09.014Z,70.24
2018-12-16T07:33:37.261Z,70.74
2018-12-16T07:36:05.969Z,70.03
2018-12-16T07:38:33.464Z,69.47
2018-12-16T07:41:01.065Z,69.79
2018-12-16T07:43:28.792Z,70.10
2018-12-16T07:45:57.243Z,70.40
2018-12-16T07:48:25.283Z,70.37
2018-12-16T07:50:54.717Z,69.45
2018-12-16T07:53:23.986Z,69.35
2018-12-16T07:55:51.627Z,69.43
2018-12-16T07:58:21.599Z,69.61
2018-12-16T08:00:52.532Z,70.37
2018-12-16T08:03:22.251Z,69.48
2018-12-16T08:05:49.835Z,70.50
2018-12-16T08:08:17.618Z,69.55
2018-12-16T08:10:46.002Z,69.61
2018-12-16T08:13:14.038Z,70.42
2018-12-16T08:15:41.933Z,69.75
2018-12-16T08:18:10.176Z,69.67
2018-12-16T08:20:38.409Z,69.96
2018-12-16T08:23:07.578Z,69.77
2018-12-16T08:25:35.212Z,70.61
2018-12-16T08:28:03.935Z,69.66
2018-12-16T08:30:32.341Z,70.53
2018-12-16T08:32:59.888Z,70.47
2018-12-16T08:35:27.955Z,69.19
2018-12-16T08:37:55.424Z,70.07
2018-12-16T08:40:23.047Z,70.45
2018-12-16T08:42:50.602Z,69.33
2018-12-16T08:45:18.151Z,69.05
2018-12-16T08:47:46.061Z,70.00
2018-12-16T08:50:13.739Z,70.04
2018-12-16T08:52:41.800Z,70.10
2018-12-16T08:55:09.330Z,69.69
2018-12-16T08:57:38.326Z,69.95
2018-12-16T09:00:05.949Z,68.43
2018-12-16T09:02:34.500Z,68.42
2018-12-16T09:05:03.572Z,68.75
2018-12-16T09:10:12.852Z,69.13
2018-12-16T09:12:41.176Z,69.38
2018-12-16T09:15:10.679Z,68.44
2018-12-16T09:17:38.176Z,68.72
2018-12-16T09:20:07.133Z,67.87
2018-12-16T09:22:34.637Z,68.64
2018-12-16T09:25:03.588Z,67.68
2018-12-16T09:27:31.076Z,67.99
2018-12-16T09:30:00.355Z,67.59
2018-12-16T09:32:28.483Z,66.74
2018-12-16T09:34:56.886Z,66.79
2018-12-16T09:37:24.379Z,67.18
2018-12-16T09:39:51.958Z,66.35
2018-12-16T09:42:19.402Z,66.71
2018-12-16T09:44:47.239Z,66.24
2018-12-16T09:47:15.705Z,65.95
2018-12-16T09:49:43.245Z,65.45
2018-12-16T09:52:10.798Z,66.50
2018-12-16T09:54:44.253Z,65.91
2018-12-16T09:57:10.235Z,65.59
2018-12-16T09:59:37.970Z,66.12
2018-12-16T10:02:06.267Z,66.45
2018-12-16T10:04:34.508Z,65.13
2018-12-16T10:07:02.052Z,65.66
2018-12-16T10:11:56.752Z,65.76
2018-12-16T10:14:24.530Z,65.23
2018-12-16T10:16:52.212Z,65.72
2018-12-16T10:19:19.776Z,66.35
2018-12-16T10:21:47.334Z,65.75
2018-12-16T10:24:15.003Z,64.76
2018-12-16T10:26:42.831Z,65.00
2018-12-16T10:29:11.637Z,65.85
2018-12-16T10:43:24.074Z,66.04
2018-12-16T10:45:53.092Z,66.61
2018-12-16T10:48:20.646Z,66.20
2018-12-16T10:59:56.263Z,65.82
2018-12-16T11:02:23.707Z,66.15
2018-12-16T11:04:51.246Z,66.51
2018-12-16T11:07:18.697Z,65.43
2018-12-16T11:09:46.186Z,65.02
2018-12-16T11:12:13.633Z,65.30
2018-12-16T11:14:41.272Z,65.24
2018-12-16T11:17:08.722Z,64.56
2018-12-16T11:19:36.199Z,63.79
2018-12-16T11:22:03.727Z,63.55
2018-12-16T11:24:31.388Z,63.16
2018-12-16T11:26:58.959Z,61.74
2018-12-16T11:29:26.628Z,61.13
2018-12-16T11:31:54.620Z,62.20
2018-12-16T11:34:22.089Z,61.75
2018-12-16T11:36:49.582Z,62.02
2018-12-16T11:39:17.062Z,61.71
2018-12-16T11:41:44.526Z,61.13
2018-12-16T11:44:12.006Z,60.76
2018-12-16T11:46:39.548Z,60.22
2018-12-16T11:49:07.096Z,60.53
2018-12-16T11:51:34.797Z,59.89
2018-12-16T11:54:02.457Z,60.01
2018-12-16T11:56:30.295Z,59.21
2018-12-16T11:58:58.054Z,59.20
2018-12-16T12:01:25.617Z,59.10
2018-12-16T12:03:53.518Z,59.31
2018-12-16T12:06:21.079Z,59.99
2018-12-16T12:08:48.559Z,59.97
2018-12-16T12:11:16.287Z,59.83
2018-12-16T12:13:43.859Z,59.63
2018-12-16T12:16:11.412Z,59.75
2018-12-16T12:18:38.865Z,59.68
2018-12-16T12:21:06.460Z,60.48
2018-12-16T12:23:33.957Z,60.84
2018-12-16T12:26:01.512Z,61.11
2018-12-16T12:28:29.230Z,61.37
2018-12-16T12:30:57.050Z,61.63
2018-12-16T12:33:25.955Z,61.91
2018-12-16T12:35:54.181Z,62.62
2018-12-16T12:38:21.803Z,61.81
2018-12-16T12:40:52.510Z,62.61
2018-12-16T12:43:20.067Z,63.22
2018-12-16T12:45:47.741Z,63.57
2018-12-16T12:48:15.308Z,63.60
2018-12-16T12:50:42.958Z,64.25
2018-12-16T12:53:10.569Z,63.98
2018-12-16T12:55:38.171Z,63.50
2018-12-16T12:58:05.684Z,63.01
2018-12-16T13:00:33.193Z,63.52
2018-12-16T13:03:00.658Z,63.35
2018-12-16T13:05:28.493Z,63.00
2018-12-16T13:07:57.029Z,63.17
2018-12-16T13:10:24.655Z,63.24
2018-12-16T13:12:52.221Z,62.69
2018-12-16T13:15:19.734Z,62.55
2018-12-16T13:17:48.278Z,62.40
2018-12-16T13:20:15.748Z,62.93
2018-12-16T13:22:43.211Z,63.66
2018-12-16T13:25:22.636Z,64.26
2018-12-16T13:27:51.154Z,64.90
2018-12-16T13:30:18.690Z,64.33
2018-12-16T13:32:46.199Z,64.39
2018-12-16T13:35:13.675Z,64.38
2018-12-16T13:37:41.150Z,64.27
2018-12-16T13:40:08.817Z,64.06
2018-12-16T13:42:36.361Z,64.37
2018-12-16T13:45:06.383Z,65.01
2018-12-16T13:47:34.119Z,64.34
2018-12-16T13:50:01.813Z,64.02
2018-12-16T13:52:29.583Z,63.75
2018-12-16T13:54:57.233Z,64.19
2018-12-16T13:57:24.829Z,64.05
2018-12-16T13:59:52.345Z,64.32
2018-12-16T14:02:19.836Z,64.61
2018-12-16T14:04:47.312Z,64.90
2018-12-16T14:07:14.912Z,64.62
2018-12-16T14:09:42.707Z,65.14
2018-12-16T14:12:10.198Z,64.91
2018-12-16T14:14:38.318Z,66.43
2018-12-16T14:17:05.963Z,65.81
2018-12-16T14:19:33.579Z,66.03
2018-12-16T14:22:01.304Z,65.91
2018-12-16T14:24:28.792Z,66.46
2018-12-16T14:26:56.317Z,65.47
2018-12-16T14:29:24.346Z,66.11
2018-12-16T14:31:51.868Z,65.44
2018-12-16T14:34:19.334Z,66.11
2018-12-16T14:36:46.842Z,66.35
2018-12-16T14:39:14.424Z,66.68
2018-12-16T14:41:42.933Z,66.28
2018-12-16T14:44:10.722Z,66.31
2018-12-16T14:46:38.309Z,67.21
2018-12-16T14:49:06.219Z,66.89
2018-12-16T14:51:33.899Z,67.21
2018-12-16T14:54:01.603Z,67.73
2018-12-16T14:56:29.283Z,67.58
2018-12-16T14:58:56.787Z,67.88
2018-12-16T15:01:24.399Z,67.45
2018-12-16T15:03:51.876Z,67.65
2018-12-16T15:06:20.383Z,67.36
2018-12-16T15:08:52.670Z,66.79
2018-12-16T15:11:20.382Z,67.20
2018-12-16T15:13:48.504Z,67.43
2018-12-16T15:16:16.064Z,67.61
2018-12-16T15:18:43.862Z,67.36
2018-12-16T15:21:12.108Z,67.96
2018-12-16T15:23:40.345Z,67.48
2018-12-16T15:26:08.407Z,67.46
2018-12-16T15:28:35.981Z,67.92
2018-12-16T15:31:03.543Z,68.24
2018-12-16T15:33:31.093Z,68.32
2018-12-16T15:35:58.743Z,68.99
2018-12-16T15:38:27.189Z,69.79
2018-12-16T15:40:54.853Z,70.34
2018-12-16T15:43:23.829Z,70.64
2018-12-16T15:45:51.381Z,71.67
2018-12-16T15:48:19.097Z,71.37
2018-12-16T15:50:47.882Z,72.28
2018-12-16T15:53:15.541Z,72.65
2018-12-16T15:55:43.196Z,72.02
2018-12-16T15:58:10.690Z,72.89
2018-12-16T16:00:38.183Z,74.17
2018-12-16T16:03:05.823Z,73.74
2018-12-16T16:05:33.755Z,74.49
2018-12-16T16:08:01.475Z,74.11
2018-12-16T16:10:30.005Z,74.08
2018-12-16T16:12:57.827Z,74.37
2018-12-16T16:15:25.515Z,74.24
2018-12-16T16:17:53.401Z,76.22
2018-12-16T16:20:20.971Z,74.83
2018-12-16T16:22:48.573Z,74.80
2018-12-16T16:25:16.883Z,74.73
2018-12-16T16:27:45.159Z,75.23
2018-12-16T16:30:12.766Z,74.57
2018-12-16T16:32:40.284Z,75.06
2018-12-16T16:35:08.376Z,75.25
2018-12-16T16:37:36.123Z,74.80
2018-12-16T16:40:04.704Z,73.21
2018-12-16T16:42:32.349Z,73.98
2018-12-16T16:44:59.832Z,74.49
2018-12-16T16:47:27.341Z,73.52
2018-12-16T16:49:54.872Z,72.99
2018-12-16T16:52:22.364Z,72.85
2018-12-16T16:54:49.866Z,73.35
2018-12-16T16:57:17.623Z,73.05
2018-12-16T16:59:45.174Z,73.60
2018-12-16T17:02:12.920Z,72.64
2018-12-16T17:04:40.599Z,72.88
2018-12-16T17:07:08.158Z,72.46
2018-12-16T17:09:35.628Z,73.60
2018-12-16T17:12:03.183Z,73.00
2018-12-16T17:14:30.662Z,73.24
2018-12-16T17:16:58.271Z,73.12
2018-12-16T17:19:25.979Z,72.80
2018-12-16T17:21:53.765Z,72.94
2018-12-16T17:24:21.279Z,73.29
2018-12-16T17:26:48.863Z,73.27
2018-12-16T17:29:16.723Z,73.48
2018-12-16T17:31:44.335Z,73.54
2018-12-16T17:34:11.955Z,73.54
2018-12-16T17:36:40.350Z,72.79
2018-12-16T17:39:08.657Z,73.72
2018-12-16T17:41:36.147Z,72.43
2018-12-16T17:44:05.098Z,72.12
2018-12-16T17:46:32.600Z,72.65
2018-12-16T17:49:00.108Z,71.84
2018-12-16T17:51:28.567Z,72.03
2018-12-16T17:53:56.024Z,71.73
2018-12-16T17:56:23.821Z,71.94
2018-12-16T17:58:51.379Z,72.39
2018-12-16T18:01:19.102Z,71.93
2018-12-16T18:03:46.945Z,72.23
2018-12-16T18:06:14.906Z,72.22
2018-12-16T18:08:42.448Z,72.27
2018-12-16T18:11:09.924Z,72.09
2018-12-16T18:13:37.432Z,72.17
2018-12-16T18:16:05.556Z,72.02
2018-12-16T18:18:33.060Z,72.60
2018-12-16T18:21:00.826Z,71.94
2018-12-16T18:23:29.770Z,72.61
2018-12-16T18:25:58.259Z,72.18
2018-12-16T18:28:25.854Z,71.85
2018-12-16T18:30:53.473Z,72.64
2018-12-16T18:33:21.267Z,72.33
2018-12-16T18:35:48.737Z,72.87
2018-12-16T18:38:16.254Z,77.08
2018-12-16T18:40:43.734Z,73.32
2018-12-16T18:43:11.381Z,71.18
2018-12-16T18:45:39.610Z,74.42
2018-12-16T18:48:07.348Z,71.27
2018-12-16T18:50:34.921Z,70.98
2018-12-16T18:53:02.439Z,72.41
2018-12-16T18:55:29.926Z,69.76
2018-12-16T18:57:57.698Z,70.03
2018-12-16T19:00:25.348Z,70.87
2018-12-16T19:02:53.312Z,71.05
2018-12-16T19:05:20.794Z,71.68
2018-12-16T19:07:48.436Z,71.29
2018-12-16T19:10:16.150Z,72.09
2018-12-16T19:12:43.834Z,72.12
2018-12-16T19:15:12.148Z,72.43
2018-12-16T19:17:42.392Z,72.11
2018-12-16T19:20:10.746Z,72.39
2018-12-16T19:22:38.323Z,72.36
2018-12-16T19:25:06.574Z,72.45
2018-12-16T19:30:16.183Z,72.21
2018-12-16T19:32:43.681Z,72.07
2018-12-16T19:35:11.154Z,72.13
2018-12-16T19:37:38.643Z,72.29
2018-12-16T19:40:06.361Z,72.21
2018-12-16T19:42:34.023Z,71.88
2018-12-16T19:45:01.592Z,71.48
2018-12-16T19:47:29.246Z,71.90
2018-12-16T19:49:56.735Z,71.83
2018-12-16T19:52:24.264Z,71.65
2018-12-16T19:54:52.784Z,71.74
2018-12-16T19:57:20.520Z,72.17
2018-12-16T19:59:48.054Z,72.33
2018-12-16T20:02:15.540Z,71.99
2018-12-16T20:04:45.378Z,72.11
2018-12-16T20:07:12.891Z,72.03
2018-12-16T20:09:40.545Z,72.07
2018-12-16T20:12:08.179Z,71.94
2018-12-16T20:14:35.800Z,72.18
2018-12-16T20:17:03.605Z,72.28
2018-12-16T20:19:31.216Z,72.07
2018-12-16T20:21:59.121Z,71.90
2018-12-16T20:24:26.662Z,72.63
2018-12-16T20:26:54.362Z,72.20
2018-12-16T20:29:21.948Z,72.11
2018-12-16T20:31:49.449Z,72.63
2018-12-16T20:34:16.962Z,72.25
2018-12-16T20:36:44.475Z,72.41
2018-12-16T20:39:12.810Z,72.65
2018-12-16T20:41:40.412Z,72.80
2018-12-16T20:44:07.982Z,72.69
2018-12-16T20:46:35.579Z,72.46
2018-12-16T20:49:03.372Z,73.33
2018-12-16T20:51:31.058Z,72.68
2018-12-16T20:53:58.723Z,73.44
2018-12-16T20:56:26.346Z,73.76
2018-12-16T20:58:53.939Z,73.20
2018-12-16T21:01:22.298Z,73.13
2018-12-16T21:03:49.930Z,73.95
2018-12-16T21:06:17.606Z,73.67
2018-12-16T21:08:45.085Z,73.63
2018-12-16T21:11:19.067Z,73.46
2018-12-16T21:16:56.946Z,73.33
2018-12-16T21:19:26.193Z,73.68
2018-12-16T21:21:56.432Z,73.75
2018-12-16T21:24:25.355Z,73.71
2018-12-16T21:26:53.227Z,73.65
2018-12-16T21:29:20.742Z,73.70
2018-12-16T21:31:48.497Z,73.68
2018-12-16T21:34:16.107Z,73.82
2018-12-16T21:36:43.746Z,73.91
2018-12-16T21:39:11.280Z,74.19
2018-12-16T21:41:38.876Z,74.03
2018-12-16T21:44:06.807Z,74.47
2018-12-16T21:46:34.579Z,74.81
2018-12-16T21:49:02.266Z,74.45
2018-12-16T21:51:29.888Z,74.34
2018-12-16T21:53:57.397Z,74.76
2018-12-16T21:56:25.014Z,74.76
2018-12-16T21:58:56.027Z,74.77
2018-12-16T22:01:23.540Z,75.22
2018-12-16T22:03:50.999Z,75.33
2018-12-16T22:06:18.444Z,74.97
2018-12-16T22:08:46.047Z,75.34
2018-12-16T22:11:13.604Z,75.53
2018-12-16T22:13:41.135Z,75.57
2018-12-16T22:16:08.855Z,75.61
2018-12-16T22:18:48.127Z,75.24
2018-12-16T22:21:15.774Z,75.94
2018-12-16T22:23:43.246Z,75.28
2018-12-16T22:26:10.772Z,75.51
2018-12-16T22:28:38.312Z,75.84
2018-12-16T22:31:05.845Z,76.05
2018-12-16T22:33:33.707Z,75.78
2018-12-16T22:36:01.725Z,75.67
2018-12-16T22:38:29.358Z,76.25
2018-12-16T22:40:58.419Z,75.97
2018-12-16T22:43:26.045Z,75.56
2018-12-16T22:45:54.077Z,76.20
2018-12-16T22:48:21.601Z,76.45
2018-12-16T22:50:49.091Z,76.37
2018-12-16T22:53:16.625Z,75.83
2018-12-16T22:55:44.355Z,75.98
2018-12-16T22:58:11.929Z,76.66
2018-12-16T23:00:45.894Z,76.57
2018-12-16T23:03:13.496Z,76.91
2018-12-16T23:05:41.143Z,76.41
2018-12-16T23:08:08.942Z,76.95
2018-12-16T23:10:36.825Z,76.49
2018-12-16T23:13:04.323Z,76.55
2018-12-16T23:15:31.857Z,76.29
2018-12-16T23:17:59.421Z,76.62
2018-12-16T23:20:33.078Z,76.36
2018-12-16T23:23:00.588Z,77.47
2018-12-16T23:25:28.102Z,76.99
2018-12-16T23:27:55.564Z,77.19
2018-12-16T23:30:23.139Z,77.33
2018-12-16T23:32:50.605Z,77.13
2018-12-16T23:35:18.100Z,77.48
2018-12-16T23:37:45.595Z,77.30
2018-12-16T23:40:13.135Z,77.07
2018-12-16T23:42:40.615Z,76.52
2018-12-16T23:45:08.245Z,76.24
2018-12-16T23:47:35.906Z,76.64
2018-12-16T23:50:05.116Z,77.14
2018-12-16T23:52:32.778Z,76.96
2018-12-16T23:55:00.234Z,77.51
2018-12-16T23:57:27.734Z,77.33
2018-12-16T23:59:55.213Z,76.86
